createdAt,value
2018-01-18T00:01:57.639Z,92.80
2018-01-18T00:04:25.407Z,92.40
2018-01-18T00:06:53.076Z,92.50
2018-01-18T00:09:20.007Z,92.60
2018-01-18T00:11:48.818Z,92.50
2018-01-18T00:14:16.282Z,92.50
2018-01-18T00:16:43.132Z,92.40
2018-01-18T00:19:10.156Z,92.50
2018-01-18T00:21:37.030Z,92.70
2018-01-18T00:24:04.189Z,92.90
2018-01-18T00:26:30.867Z,92.20
2018-01-18T00:28:57.575Z,92.30
2018-01-18T00:31:24.328Z,92.40
2018-01-18T00:33:51.271Z,92.20
2018-01-18T00:36:18.122Z,91.70
2018-01-18T00:38:44.969Z,91.60
2018-01-18T00:41:12.125Z,91.70
2018-01-18T00:43:39.074Z,91.40
2018-01-18T00:46:06.745Z,91.80
2018-01-18T00:48:33.796Z,92.10
2018-01-18T00:51:00.644Z,92.20
2018-01-18T00:53:27.830Z,92.20
2018-01-18T00:55:54.652Z,92.10
2018-01-18T00:58:21.807Z,92.10
2018-01-18T01:00:49.267Z,92.40
2018-01-18T01:03:16.925Z,92.40
2018-01-18T01:05:43.786Z,92.40
2018-01-18T01:08:11.659Z,92.30
2018-01-18T01:10:38.708Z,92.40
2018-01-18T01:13:06.374Z,92.40
2018-01-18T01:15:33.816Z,92.40
2018-01-18T01:18:01.815Z,92.70
2018-01-18T01:20:28.869Z,92.60
2018-01-18T01:22:55.713Z,92.80
2018-01-18T01:25:22.459Z,92.90
2018-01-18T01:27:50.128Z,92.70
2018-01-18T01:30:17.182Z,92.50
2018-01-18T01:32:44.953Z,92.50
2018-01-18T01:35:11.701Z,92.80
2018-01-18T01:37:39.056Z,92.60
2018-01-18T01:40:05.905Z,92.30
2018-01-18T01:42:32.651Z,92.50
2018-01-18T01:45:00.299Z,92.90
2018-01-18T01:47:29.110Z,92.90
2018-01-18T01:49:55.963Z,92.90
2018-01-18T01:52:22.847Z,93.20
2018-01-18T01:54:49.867Z,93.30
2018-01-18T01:57:16.734Z,93.30
2018-01-18T01:59:43.574Z,93.20
2018-01-18T02:02:10.513Z,93.20
2018-01-18T02:04:37.256Z,93.20
2018-01-18T02:07:05.539Z,93.00
2018-01-18T02:09:32.798Z,92.80
2018-01-18T02:12:02.267Z,92.60
2018-01-18T02:14:29.768Z,92.70
2018-01-18T02:16:56.724Z,92.60
2018-01-18T02:19:23.488Z,92.60
2018-01-18T02:21:51.035Z,92.60
2018-01-18T02:24:17.880Z,92.70
2018-01-18T02:26:44.624Z,92.80
2018-01-18T02:29:11.680Z,92.90
2018-01-18T02:31:38.538Z,93.20
2018-01-18T02:34:05.785Z,93.20
2018-01-18T02:36:33.044Z,93.20
2018-01-18T02:38:59.880Z,93.20
2018-01-18T02:41:28.072Z,93.10
2018-01-18T02:43:55.739Z,93.10
2018-01-18T02:46:22.486Z,93.10
2018-01-18T02:48:49.743Z,93.10
2018-01-18T02:51:17.612Z,93.40
2018-01-18T02:53:44.359Z,93.20
2018-01-18T02:56:11.047Z,93.10
2018-01-18T02:58:37.855Z,92.90
2018-01-18T03:01:04.597Z,92.70
2018-01-18T03:03:32.266Z,92.80
2018-01-18T03:05:59.011Z,92.80
2018-01-18T03:08:26.677Z,93.00
2018-01-18T03:10:53.428Z,92.90
2018-01-18T03:13:20.173Z,93.00
2018-01-18T03:15:47.226Z,93.10
2018-01-18T03:18:14.763Z,93.20
2018-01-18T03:20:43.072Z,92.90
2018-01-18T03:23:10.125Z,92.80
2018-01-18T03:25:37.041Z,92.80
2018-01-18T03:28:04.536Z,93.00
2018-01-18T03:30:31.380Z,93.00
2018-01-18T03:33:00.294Z,93.20
2018-01-18T03:35:27.437Z,93.30
2018-01-18T03:37:54.288Z,93.30
2018-01-18T03:40:21.851Z,93.10
2018-01-18T03:42:48.571Z,92.70
2018-01-18T03:45:16.159Z,92.50
2018-01-18T03:47:43.009Z,92.70
2018-01-18T03:50:10.275Z,92.80
2018-01-18T03:52:37.111Z,92.50
2018-01-18T03:55:03.862Z,92.40
2018-01-18T03:57:30.838Z,92.30
2018-01-18T03:59:58.020Z,92.40
2018-01-18T04:02:26.251Z,92.40
2018-01-18T04:04:53.405Z,92.40
2018-01-18T04:07:20.769Z,92.50
2018-01-18T04:09:47.511Z,92.50
2018-01-18T04:12:14.257Z,92.40
2018-01-18T04:14:41.219Z,92.60
2018-01-18T04:17:08.059Z,92.50
2018-01-18T04:19:35.011Z,92.40
2018-01-18T04:22:01.919Z,92.30
2018-01-18T04:24:31.369Z,92.00
2018-01-18T04:26:58.112Z,92.00
2018-01-18T04:29:25.781Z,92.00
2018-01-18T04:31:52.527Z,92.20
2018-01-18T04:34:19.580Z,92.30
2018-01-18T04:36:47.542Z,92.30
2018-01-18T04:39:16.960Z,92.10
2018-01-18T04:41:44.794Z,92.10
2018-01-18T04:44:12.296Z,92.40
2018-01-18T04:46:39.040Z,92.40
2018-01-18T04:49:06.685Z,92.30
2018-01-18T04:51:34.272Z,92.40
2018-01-18T04:54:01.820Z,92.30
2018-01-18T04:56:30.016Z,92.30
2018-01-18T04:58:57.180Z,92.20
2018-01-18T05:01:24.024Z,92.60
2018-01-18T05:03:51.180Z,92.60
2018-01-18T05:06:18.113Z,92.50
2018-01-18T05:08:46.104Z,92.30
2018-01-18T05:11:12.786Z,92.30
2018-01-18T05:13:40.414Z,92.10
2018-01-18T05:16:08.798Z,92.00
2018-01-18T05:18:36.872Z,92.20
2018-01-18T05:21:03.928Z,92.10
2018-01-18T05:23:31.187Z,92.10
2018-01-18T05:25:59.465Z,92.60
2018-01-18T05:28:26.517Z,92.20
2018-01-18T05:30:53.673Z,92.10
2018-01-18T05:33:20.600Z,91.90
2018-01-18T05:35:48.291Z,91.70
2018-01-18T05:38:15.553Z,91.60
2018-01-18T05:40:42.298Z,91.70
2018-01-18T05:43:09.045Z,92.00
2018-01-18T05:45:36.543Z,92.20
2018-01-18T05:48:03.346Z,92.40
2018-01-18T05:50:29.997Z,92.60
2018-01-18T05:52:56.795Z,92.80
2018-01-18T05:55:24.615Z,92.00
2018-01-18T05:57:51.465Z,92.00
2018-01-18T06:00:19.235Z,91.70
2018-01-18T06:02:46.085Z,91.70
2018-01-18T06:05:15.734Z,91.70
2018-01-18T06:07:43.364Z,91.70
2018-01-18T06:10:12.566Z,91.80
2018-01-18T06:12:39.926Z,91.80
2018-01-18T06:15:08.616Z,92.00
2018-01-18T06:17:35.773Z,92.10
2018-01-18T06:20:02.826Z,92.20
2018-01-18T06:22:29.572Z,92.00
2018-01-18T06:24:56.291Z,92.20
2018-01-18T06:27:23.060Z,91.80
2018-01-18T06:29:50.117Z,92.30
2018-01-18T06:32:16.860Z,92.20
2018-01-18T06:34:44.528Z,92.00
2018-01-18T06:37:11.585Z,91.90
2018-01-18T06:39:38.739Z,91.80
2018-01-18T06:42:05.999Z,91.90
2018-01-18T06:44:33.050Z,92.10
2018-01-18T06:47:00.108Z,91.90
2018-01-18T06:49:27.359Z,91.80
2018-01-18T06:52:01.743Z,92.30
2018-01-18T06:54:30.164Z,92.10
2018-01-18T06:56:57.733Z,92.10
2018-01-18T06:59:25.297Z,92.10
2018-01-18T07:01:52.451Z,92.20
2018-01-18T07:04:19.198Z,92.10
2018-01-18T07:06:46.324Z,92.20
2018-01-18T07:09:13.611Z,92.20
2018-01-18T07:11:40.357Z,92.30
2018-01-18T07:14:07.613Z,92.60
2018-01-18T07:16:34.667Z,92.30
2018-01-18T07:19:02.074Z,92.40
2018-01-18T07:21:29.493Z,92.60
2018-01-18T07:23:56.750Z,92.50
2018-01-18T07:26:23.493Z,92.10
2018-01-18T07:28:50.238Z,92.60
2018-01-18T07:31:17.256Z,92.50
2018-01-18T07:33:44.756Z,92.50
2018-01-18T07:36:12.937Z,92.40
2018-01-18T07:38:39.790Z,92.30
2018-01-18T07:41:06.938Z,92.10
2018-01-18T07:43:34.096Z,92.50
2018-01-18T07:46:00.843Z,92.80
2018-01-18T07:48:28.816Z,93.00
2018-01-18T07:50:56.074Z,92.70
2018-01-18T07:53:22.807Z,92.50
2018-01-18T07:55:49.974Z,92.10
2018-01-18T07:58:16.826Z,91.70
2018-01-18T08:00:43.673Z,91.80
2018-01-18T08:03:16.557Z,92.00
2018-01-18T08:05:43.312Z,92.10
2018-01-18T08:08:11.892Z,92.40
2018-01-18T08:10:39.152Z,92.40
2018-01-18T08:13:05.897Z,92.50
2018-01-18T08:15:33.155Z,92.50
2018-01-18T08:18:00.105Z,92.60
2018-01-18T08:20:27.056Z,92.80
2018-01-18T08:22:55.234Z,92.60
2018-01-18T08:25:21.981Z,92.20
2018-01-18T08:27:49.558Z,91.80
2018-01-18T08:30:16.598Z,91.90
2018-01-18T08:32:43.754Z,91.70
2018-01-18T08:35:10.501Z,91.70
2018-01-18T08:37:37.249Z,91.90
2018-01-18T08:40:04.021Z,92.10
2018-01-18T08:42:30.948Z,92.10
2018-01-18T08:44:58.719Z,92.10
2018-01-18T08:47:25.974Z,92.00
2018-01-18T08:49:52.718Z,92.10
2018-01-18T08:52:19.758Z,92.30
2018-01-18T08:54:46.505Z,91.80
2018-01-18T08:57:14.143Z,91.60
2018-01-18T08:59:41.343Z,91.60
2018-01-18T09:02:08.496Z,91.40
2018-01-18T09:04:35.552Z,91.70
2018-01-18T09:07:03.626Z,91.50
2018-01-18T09:09:31.090Z,91.50
2018-01-18T09:11:58.349Z,91.20
2018-01-18T09:14:25.196Z,90.80
2018-01-18T09:16:52.046Z,90.90
2018-01-18T09:19:18.792Z,90.90
2018-01-18T09:21:46.868Z,91.00
2018-01-18T09:24:13.816Z,91.20
2018-01-18T09:26:40.770Z,91.30
2018-01-18T09:29:07.923Z,91.40
2018-01-18T09:31:35.283Z,91.30
2018-01-18T09:34:02.443Z,91.40
2018-01-18T09:36:30.313Z,91.60
2018-01-18T09:38:57.468Z,91.40
2018-01-18T09:41:25.339Z,91.70
2018-01-18T09:43:53.315Z,91.70
2018-01-18T09:46:20.673Z,91.40
2018-01-18T09:48:48.137Z,91.50
2018-01-18T09:51:15.808Z,91.50
2018-01-18T09:53:42.628Z,91.20
2018-01-18T09:56:12.058Z,91.20
2018-01-18T09:58:39.319Z,91.20
2018-01-18T10:01:06.574Z,91.30
2018-01-18T10:03:33.422Z,90.70
2018-01-18T10:06:00.070Z,90.50
2018-01-18T10:08:26.817Z,90.80
2018-01-18T10:10:53.974Z,91.00
2018-01-18T10:13:21.330Z,90.90
2018-01-18T10:15:48.283Z,90.40
2018-01-18T10:18:15.026Z,90.60
2018-01-18T10:20:41.748Z,90.90
2018-01-18T10:23:09.338Z,90.20
2018-01-18T10:25:37.008Z,90.10
2018-01-18T10:28:03.750Z,90.40
2018-01-18T10:30:30.701Z,90.40
2018-01-18T10:32:57.756Z,90.50
2018-01-18T10:35:25.830Z,90.40
2018-01-18T10:37:55.135Z,90.60
2018-01-18T10:40:22.393Z,90.40
2018-01-18T10:42:52.373Z,90.60
2018-01-18T10:45:19.777Z,90.50
2018-01-18T10:47:47.138Z,90.30
2018-01-18T10:50:14.088Z,90.70
2018-01-18T10:52:41.347Z,90.60
2018-01-18T10:55:08.168Z,90.90
2018-01-18T10:57:36.882Z,90.10
2018-01-18T11:00:04.663Z,90.10
2018-01-18T11:02:31.929Z,88.80
2018-01-18T11:04:59.144Z,89.30
2018-01-18T11:07:27.349Z,89.60
2018-01-18T11:09:54.099Z,90.00
2018-01-18T11:12:21.357Z,89.60
2018-01-18T11:14:48.891Z,87.50
2018-01-18T11:17:16.495Z,88.30
2018-01-18T11:19:43.945Z,88.60
2018-01-18T11:22:10.897Z,88.70
2018-01-18T11:24:38.970Z,88.50
2018-01-18T11:27:05.712Z,88.80
2018-01-18T11:29:32.576Z,87.70
2018-01-18T11:31:59.288Z,87.70
2018-01-18T11:34:26.052Z,87.50
2018-01-18T11:36:54.815Z,87.20
2018-01-18T11:39:21.501Z,87.00
2018-01-18T11:41:48.861Z,86.10
2018-01-18T11:44:15.706Z,86.60
2018-01-18T11:46:42.556Z,87.10
2018-01-18T11:49:10.018Z,87.00
2018-01-18T11:51:37.276Z,87.90
2018-01-18T11:54:04.125Z,88.30
2018-01-18T11:56:31.208Z,89.00
2018-01-18T11:58:58.026Z,89.20
2018-01-18T12:01:25.590Z,88.70
2018-01-18T12:03:52.720Z,89.80
2018-01-18T12:06:20.309Z,89.60
2018-01-18T12:08:47.157Z,89.50
2018-01-18T12:11:14.519Z,89.40
2018-01-18T12:13:41.367Z,89.00
2018-01-18T12:16:08.431Z,89.00
2018-01-18T12:18:35.475Z,89.60
2018-01-18T12:21:03.140Z,89.70
2018-01-18T12:23:31.114Z,90.10
2018-01-18T12:25:59.603Z,90.40
2018-01-18T12:28:26.348Z,90.60
2018-01-18T12:30:53.197Z,90.80
2018-01-18T12:33:20.252Z,90.60
2018-01-18T12:35:47.509Z,90.60
2018-01-18T12:38:14.562Z,90.50
2018-01-18T12:40:42.214Z,90.20
2018-01-18T12:43:10.098Z,90.20
2018-01-18T12:45:37.765Z,90.20
2018-01-18T12:48:05.130Z,90.50
2018-01-18T12:50:32.281Z,90.40
2018-01-18T12:52:59.237Z,90.50
2018-01-18T12:55:26.387Z,90.60
2018-01-18T12:57:53.236Z,90.60
2018-01-18T13:00:20.187Z,90.90
2018-01-18T13:02:46.997Z,90.90
2018-01-18T13:05:13.785Z,91.00
2018-01-18T13:07:40.732Z,91.00
2018-01-18T13:10:08.913Z,91.00
2018-01-18T13:12:36.476Z,91.10
2018-01-18T13:15:03.634Z,91.10
2018-01-18T13:17:30.667Z,91.00
2018-01-18T13:19:58.150Z,90.80
2018-01-18T13:22:25.100Z,90.80
2018-01-18T13:24:51.924Z,90.90
2018-01-18T13:27:19.717Z,91.00
2018-01-18T13:29:48.741Z,91.00
2018-01-18T13:32:15.872Z,91.40
2018-01-18T13:34:43.028Z,91.90
2018-01-18T13:37:10.012Z,91.80
2018-01-18T13:39:38.958Z,91.80
2018-01-18T13:42:07.461Z,91.90
2018-01-18T13:44:35.945Z,91.90
2018-01-18T13:47:02.903Z,91.90
2018-01-18T13:49:29.748Z,91.70
2018-01-18T13:51:56.594Z,91.80
2018-01-18T13:54:23.854Z,91.90
2018-01-18T13:56:51.007Z,92.10
2018-01-18T13:59:18.881Z,92.50
2018-01-18T14:01:45.731Z,92.20
2018-01-18T14:04:12.682Z,92.30
2018-01-18T14:06:40.757Z,92.30
2018-01-18T14:09:07.943Z,92.40
2018-01-18T14:11:35.680Z,92.20
2018-01-18T14:14:02.634Z,92.20
2018-01-18T14:16:29.889Z,92.20
2018-01-18T14:18:56.840Z,92.20
2018-01-18T14:21:26.277Z,92.20
2018-01-18T14:23:55.153Z,92.50
2018-01-18T14:26:24.142Z,92.50
2018-01-18T14:28:51.606Z,92.70
2018-01-18T14:31:19.378Z,92.70
2018-01-18T14:33:49.057Z,92.80
2018-01-18T14:36:17.367Z,93.00
2018-01-18T14:38:44.113Z,92.90
2018-01-18T14:41:11.476Z,92.90
2018-01-18T14:43:39.144Z,92.70
2018-01-18T14:46:05.995Z,92.70
2018-01-18T14:48:32.843Z,92.80
2018-01-18T14:50:59.993Z,92.90
2018-01-18T14:53:27.046Z,93.30
2018-01-18T14:55:53.898Z,93.00
2018-01-18T14:58:20.742Z,93.00
2018-01-18T15:00:47.899Z,93.00
2018-01-18T15:03:16.716Z,93.00
2018-01-18T15:05:46.685Z,93.00
2018-01-18T15:08:14.891Z,93.00
2018-01-18T15:10:42.013Z,93.00
2018-01-18T15:13:10.947Z,93.10
2018-01-18T15:15:37.803Z,93.10
2018-01-18T15:18:04.847Z,93.10
2018-01-18T15:20:31.798Z,93.10
2018-01-18T15:22:58.955Z,93.10
2018-01-18T15:25:25.803Z,93.10
2018-01-18T15:27:52.545Z,93.10
2018-01-18T15:30:19.909Z,93.10
2018-01-18T15:32:46.656Z,92.90
2018-01-18T15:35:13.705Z,92.90
2018-01-18T15:37:40.657Z,93.00
2018-01-18T15:40:07.511Z,93.00
2018-01-18T15:42:34.458Z,92.90
2018-01-18T15:45:01.202Z,92.90
2018-01-18T15:47:28.460Z,92.70
2018-01-18T15:49:56.743Z,92.90
2018-01-18T15:52:23.532Z,93.00
2018-01-18T15:54:50.953Z,93.00
2018-01-18T15:57:18.617Z,92.90
2018-01-18T15:59:46.185Z,93.00
2018-01-18T16:02:13.068Z,93.10
2018-01-18T16:04:39.981Z,93.00
2018-01-18T16:07:07.857Z,92.90
2018-01-18T16:09:34.807Z,92.80
2018-01-18T16:12:01.760Z,92.60
2018-01-18T16:14:28.606Z,92.70
2018-01-18T16:16:56.377Z,92.90
2018-01-18T16:19:23.225Z,92.90
2018-01-18T16:21:51.303Z,92.60
2018-01-18T16:24:19.966Z,92.30
2018-01-18T16:26:48.477Z,92.10
2018-01-18T16:29:16.758Z,92.30
2018-01-18T16:31:44.630Z,92.20
2018-01-18T16:34:11.375Z,92.10
2018-01-18T16:36:38.842Z,91.90
2018-01-18T16:39:06.404Z,91.90
2018-01-18T16:41:33.257Z,92.00
2018-01-18T16:44:03.222Z,91.90
2018-01-18T16:46:31.146Z,91.80
2018-01-18T16:48:58.199Z,91.80
2018-01-18T16:51:25.253Z,91.90
2018-01-18T16:53:53.434Z,91.90
2018-01-18T16:56:21.917Z,92.20
2018-01-18T16:58:49.009Z,91.80
2018-01-18T17:01:15.716Z,92.00
2018-01-18T17:03:43.997Z,92.00
2018-01-18T17:06:10.741Z,91.80
2018-01-18T17:08:38.103Z,91.60
2018-01-18T17:11:04.849Z,91.90
2018-01-18T17:13:31.911Z,91.60
2018-01-18T17:15:59.161Z,91.80
2018-01-18T17:18:25.908Z,91.80
2018-01-18T17:20:52.859Z,91.60
2018-01-18T17:23:20.425Z,91.70
2018-01-18T17:25:47.679Z,91.60
2018-01-18T17:28:14.840Z,91.80
2018-01-18T17:30:41.990Z,91.60
2018-01-18T17:33:11.015Z,91.70
2018-01-18T17:35:38.248Z,91.40
2018-01-18T17:38:06.221Z,91.30
2018-01-18T17:40:33.887Z,91.30
2018-01-18T17:43:01.554Z,91.20
2018-01-18T17:45:29.139Z,91.20
2018-01-18T17:47:56.381Z,91.40
2018-01-18T17:50:23.637Z,91.30
2018-01-18T17:52:51.409Z,91.40
2018-01-18T17:55:18.045Z,91.40
2018-01-18T17:57:45.716Z,91.20
2018-01-18T18:00:12.874Z,91.20
2018-01-18T18:02:39.924Z,91.10
2018-01-18T18:05:07.092Z,91.30
2018-01-18T18:07:34.443Z,91.10
2018-01-18T18:10:01.292Z,92.00
2018-01-18T18:12:29.166Z,91.40
2018-01-18T18:14:56.218Z,91.60
2018-01-18T18:17:23.782Z,91.60
2018-01-18T18:19:50.832Z,91.50
2018-01-18T18:22:17.582Z,91.40
2018-01-18T18:24:46.421Z,91.30
2018-01-18T18:27:14.065Z,91.00
2018-01-18T18:29:41.297Z,91.10
2018-01-18T18:32:09.372Z,91.30
2018-01-18T18:34:38.875Z,91.50
2018-01-18T18:37:05.734Z,91.60
2018-01-18T18:39:34.086Z,91.50
2018-01-18T18:42:01.171Z,91.70
2018-01-18T18:44:28.020Z,91.90
2018-01-18T18:46:55.891Z,92.00
2018-01-18T18:49:24.070Z,92.00
2018-01-18T18:51:51.943Z,91.80
2018-01-18T18:54:18.994Z,92.10
2018-01-18T18:56:48.145Z,92.20
2018-01-18T18:59:15.452Z,92.00
2018-01-18T19:01:42.300Z,91.60
2018-01-18T19:04:09.406Z,91.70
2018-01-18T19:06:36.409Z,92.10
2018-01-18T19:09:03.362Z,92.30
2018-01-18T19:11:30.109Z,92.30
2018-01-18T19:13:58.674Z,92.10
2018-01-18T19:16:27.807Z,91.60
2018-01-18T19:18:54.951Z,91.50
2018-01-18T19:21:21.797Z,91.40
2018-01-18T19:23:48.952Z,91.80
2018-01-18T19:26:18.055Z,91.90
2018-01-18T19:28:45.928Z,91.80
2018-01-18T19:31:12.773Z,92.00
2018-01-18T19:33:39.826Z,92.00
2018-01-18T19:36:08.347Z,91.80
2018-01-18T19:38:37.313Z,91.80
2018-01-18T19:41:04.366Z,91.90
2018-01-18T19:43:31.521Z,91.90
2018-01-18T19:45:58.678Z,91.80
2018-01-18T19:48:26.964Z,92.20
2018-01-18T19:50:55.442Z,92.30
2018-01-18T19:53:23.917Z,92.30
2018-01-18T19:55:52.004Z,91.80
2018-01-18T19:58:18.957Z,92.10
2018-01-18T20:00:45.706Z,92.30
2018-01-18T20:03:13.172Z,92.30
2018-01-18T20:05:40.018Z,92.30
2018-01-18T20:08:06.875Z,92.30
2018-01-18T20:10:34.327Z,92.40
2018-01-18T20:13:01.380Z,92.50
2018-01-18T20:15:28.228Z,92.60
2018-01-18T20:17:55.489Z,91.80
2018-01-18T20:20:22.749Z,92.10
2018-01-18T20:22:49.883Z,92.10
2018-01-18T20:25:26.365Z,92.40
2018-01-18T20:27:53.969Z,92.10
2018-01-18T20:30:20.882Z,92.30
2018-01-18T20:32:47.667Z,92.60
2018-01-18T20:35:14.579Z,92.70
2018-01-18T20:37:42.246Z,92.70
2018-01-18T20:40:09.400Z,92.70
2018-01-18T20:42:36.146Z,92.80
2018-01-18T20:45:03.306Z,92.50
2018-01-18T20:47:29.997Z,92.80
2018-01-18T20:49:58.148Z,92.60
2018-01-18T20:52:26.076Z,92.90
2018-01-18T20:54:54.249Z,92.60
2018-01-18T20:57:27.986Z,92.50
2018-01-18T20:59:55.140Z,92.40
2018-01-18T21:02:22.556Z,92.30
2018-01-18T21:04:50.199Z,92.30
2018-01-18T21:07:17.532Z,92.40
2018-01-18T21:09:44.376Z,92.50
2018-01-18T21:12:11.432Z,92.90
2018-01-18T21:14:39.443Z,92.60
2018-01-18T21:17:06.814Z,92.50
2018-01-18T21:19:34.226Z,92.60
2018-01-18T21:22:01.277Z,92.70
2018-01-18T21:24:28.334Z,92.60
2018-01-18T21:26:56.104Z,92.50
2018-01-18T21:29:22.952Z,92.90
2018-01-18T21:31:49.695Z,92.70
2018-01-18T21:34:18.198Z,92.70
2018-01-18T21:36:48.281Z,92.60
2018-01-18T21:39:15.475Z,92.60
2018-01-18T21:41:42.677Z,92.60
2018-01-18T21:44:09.571Z,92.60
2018-01-18T21:46:36.933Z,92.70
2018-01-18T21:49:07.571Z,92.80
2018-01-18T21:51:35.396Z,92.90
2018-01-18T21:54:04.915Z,92.80
2018-01-18T21:56:32.291Z,92.60
2018-01-18T21:58:59.257Z,92.60
2018-01-18T22:01:26.512Z,92.90
2018-01-18T22:03:54.592Z,93.00
2018-01-18T22:06:22.565Z,92.80
2018-01-18T22:08:49.618Z,92.60
2018-01-18T22:11:16.776Z,92.60
2018-01-18T22:13:43.580Z,92.40
2018-01-18T22:16:11.482Z,92.40
2018-01-18T22:18:39.851Z,92.60
2018-01-18T22:21:07.748Z,92.60
2018-01-18T22:23:34.904Z,92.50
2018-01-18T22:26:02.161Z,92.30
2018-01-18T22:28:29.095Z,92.40
2018-01-18T22:30:56.474Z,92.60
2018-01-18T22:33:23.526Z,92.50
2018-01-18T22:35:50.254Z,92.70
2018-01-18T22:38:18.148Z,92.80
2018-01-18T22:40:45.710Z,92.60
2018-01-18T22:43:12.698Z,92.50
2018-01-18T22:45:42.225Z,92.70
2018-01-18T22:48:09.119Z,92.70
2018-01-18T22:50:36.178Z,92.60
2018-01-18T22:53:05.349Z,92.60
2018-01-18T22:55:35.586Z,92.80
2018-01-18T22:58:03.272Z,93.00
2018-01-18T23:00:30.936Z,92.90
2018-01-18T23:02:58.094Z,92.90
2018-01-18T23:05:24.948Z,92.90
2018-01-18T23:07:53.326Z,92.80
2018-01-18T23:10:20.788Z,92.70
2018-01-18T23:12:48.862Z,92.70
2018-01-18T23:15:16.121Z,92.70
2018-01-18T23:17:42.968Z,92.80
2018-01-18T23:20:10.230Z,92.90
2018-01-18T23:22:37.385Z,92.80
2018-01-18T23:25:04.444Z,92.90
2018-01-18T23:27:32.205Z,92.80
2018-01-18T23:30:01.100Z,92.50
2018-01-18T23:32:27.849Z,92.50
2018-01-18T23:34:55.821Z,92.50
2018-01-18T23:37:22.976Z,92.70
2018-01-18T23:39:50.030Z,92.30
2018-01-18T23:42:18.356Z,92.40
2018-01-18T23:44:45.160Z,92.40
2018-01-18T23:47:12.012Z,92.40
2018-01-18T23:49:40.470Z,92.50
2018-01-18T23:52:08.471Z,92.80
2018-01-18T23:54:35.320Z,92.80
2018-01-18T23:57:03.189Z,92.70
2018-01-18T23:59:30.963Z,92.40
